Nearby METAR Reports

 

KMTN - Baltimore/Martin, Maryland, USA
Distance from station: SSE 8mi, 13km
Updated: Thu, 02-Apr-2015 3:48am EDT
Clear
Clear
 Wind from calm
Wind: Calm
Temperature: 36°F , 2°C
Dew Point: 34°F , 1°C
Humidity: 93%
Barometer: 30.25 inHg , 1024.4 hPa
Clouds: Clear
Visibility: 10 miles , 16 km
2015/04/02 07:48 KMTN 020748Z AUTO 00000KT 10SM CLR 02/01 A3025 RMK AO2
KDMH - Baltimore/Dwntwn, Maryland, USA
Distance from station: SW 12mi, 19km
Updated: Thu, 02-Apr-2015 2:54am EDT

 
Temperature: 45°F , 7°C
Dew Point: 27°F , -3°C
Humidity: 49%
Barometer: 30.25 inHg , 1024.4 hPa
2015/04/02 06:54 KDMH 020654Z AUTO 07/M03 A3025 RMK AO1 SLP243 T00671028
 
KBWI - Balto/Wash Intl, Maryland, USA
Distance from station: SSW 20mi, 33km
Updated: Thu, 02-Apr-2015 2:54am EDT
Few Clouds
Few Clouds
 Wind from calm
Wind: Calm
Temperature: 37°F , 3°C
Dew Point: 27°F , -3°C
Humidity: 65%
Barometer: 30.24 inHg , 1024 hPa
Clouds: Few Clouds
Visibility: 10 miles , 16 km
Cloud details: Few Clouds 25000 ft
2015/04/02 06:54 KBWI 020654Z 00000KT 10SM FEW250 03/M03 A3024 RMK AO2 SLP241 T00331033
KDMW - Carroll Cnty, Maryland, USA
Distance from station: WNW 30mi, 48km
Updated: Thu, 02-Apr-2015 3:40am EDT
Partly cloudy
Partly cloudy
 Wind from S
Wind: S 6 mph , 9 km/h
Temperature: 43°F , 6°C
Wind Chill: 39°F , 4°C
Dew Point: 27°F , -3°C
Humidity: 53%
Barometer: 30.20 inHg , 1022.7 hPa
Clouds: Partly cloudy
Visibility: 10 miles , 16 km
Cloud details: Partly cloudy 8500 ft
2015/04/02 07:40 KDMW 020740Z AUTO 18005KT 10SM SCT085 06/M03 A3020 RMK AO2
 
KNAK - Annapolis/Naval, Maryland, USA
Distance from station: S 30mi, 48km
Updated: Thu, 02-Apr-2015 2:54am EDT
Clear
Clear
 Wind from calm
Wind: Calm
Temperature: 39°F , 4°C
Dew Point: 34°F , 1°C
Humidity: 81%
Barometer: 30.25 inHg , 1024.4 hPa
Clouds: Clear
Visibility: 10 miles , 16 km
2015/04/02 06:54 KNAK 020654Z AUTO 00000KT 10SM CLR 04/01 A3025 RMK AO2 SLP245 T00390011
KW29 - Stevensville, Maryland, USA
Distance from station: SSE 31mi, 50km
Updated: Thu, 02-Apr-2015 3:41am EDT

 Wind from SSE
Wind: SSE 5 mph , 7 km/h
Temperature: 41°F , 5°C
Wind Chill: 38°F , 3°C
Dew Point: 34°F , 1°C
Humidity: 76%
Barometer: 30.25 inHg , 1024.4 hPa
Visibility: 10 miles , 16 km
2015/04/02 07:41 KW29 020741Z AUTO 16004KT 10SM 05/01 A3025 RMK AO1
 
KCGS - College Park, Maryland, USA
Distance from station: SW 38mi, 61km
Updated: Thu, 02-Apr-2015 3:40am EDT
Clear
Clear
 Wind from calm
Wind: Calm
Temperature: 36°F , 2°C
Dew Point: 32°F , 0°C
Humidity: 87%
Barometer: 30.24 inHg , 1024 hPa
Clouds: Clear
Visibility: 10 miles , 16 km
2015/04/02 07:40 KCGS 020740Z AUTO 00000KT 10SM CLR 02/00 A3024 RMK AO1
KGAI - Gaithersburg, Maryland, USA
Distance from station: WSW 40mi, 65km
Updated: Thu, 02-Apr-2015 3:35am EDT
Clear
Clear
 Wind from SSE
Wind: SSE 3 mph , 6 km/h
Temperature: 39°F , 4°C
Dew Point: 25°F , -4°C
Humidity: 56%
Barometer: 30.26 inHg , 1024.7 hPa
Clouds: Clear
Visibility: 10 miles , 16 km
2015/04/02 07:35 KGAI 020735Z AUTO 15003KT 10SM CLR 04/M04 A3026 RMK AO1
 
KTHV - York, Pennsylvania, USA
Distance from station: NNW 40mi, 65km
Updated: Thu, 02-Apr-2015 2:53am EDT
Clear
Clear
 Wind from calm
Wind: Calm
Temperature: 28°F , -2°C
Dew Point: 23°F , -5°C
Humidity: 80%
Barometer: 30.21 inHg , 1023 hPa
Clouds: Clear
Visibility: 10 miles , 16 km
2015/04/02 06:53 KTHV 020653Z AUTO 00000KT 10SM CLR M02/M05 A3021 RMK AO2 SLP235 T10221050
KFDK - Frederick, Maryland, USA
Distance from station: W 47mi, 75km
Updated: Thu, 02-Apr-2015 3:20am EDT
Clear
Clear
 Wind from calm
Wind: Calm
Temperature: 32°F , 0°C
Dew Point: 28°F , -2°C
Humidity: 87%
Barometer: 30.24 inHg , 1024 hPa
Clouds: Clear
Visibility: 10 miles , 16 km
2015/04/02 07:20 KFDK 020720Z AUTO 00000KT 10SM CLR 00/M02 A3024 RMK AO2
 
KESN - Easton/Newnam, Maryland, USA
Distance from station: SSE 48mi, 78km
Updated: Thu, 02-Apr-2015 3:58am EDT
Clear
Clear
 Wind from calm
Wind: Calm
Temperature: 39°F , 4°C
Dew Point: 36°F , 2°C
Humidity: 87%
Barometer: 30.29 inHg , 1025.7 hPa
Clouds: Clear
Visibility: 10 miles , 16 km
2015/04/02 07:58 KESN 020758Z AUTO 00000KT 10SM CLR 04/02 A3029 RMK AO2 T00380022
KDCA - Washington/Natl, Washington D.c., USA
Distance from station: SW 49mi, 79km
Updated: Thu, 02-Apr-2015 2:52am EDT
Clear
Clear
 Wind from S
Wind: S 7 mph , 11 km/h
Temperature: 45°F , 7°C
Wind Chill: 41°F , 5°C
Dew Point: 34°F , 1°C
Humidity: 66%
Barometer: 30.26 inHg , 1024.7 hPa
Clouds: Clear
Visibility: 10 miles , 16 km
2015/04/02 06:52 KDCA 020652Z 19006KT 10SM CLR 07/01 A3026 RMK AO2 SLP247 T00720006
 
KLNS - Lancaster, Pennsylvania, USA
Distance from station: N 49mi, 79km
Updated: Thu, 02-Apr-2015 2:53am EDT
Clear
Clear
 Wind from E
Wind: E 3 mph , 6 km/h
Temperature: 34°F , 1°C
Dew Point: 28°F , -2°C
Humidity: 81%
Barometer: 30.22 inHg , 1023.4 hPa
Clouds: Clear
Visibility: 7 miles , 11 km
2015/04/02 06:53 KLNS 020653Z AUTO 09003KT 7SM CLR 01/M02 A3022 RMK AO2 SLP236 T00061022
KILG - Wilmington, Delaware, USA
Distance from station: ENE 50mi, 81km
Updated: Thu, 02-Apr-2015 2:51am EDT
Clear
Clear
 Wind from W
Wind: W 3 mph , 6 km/h
Temperature: 36°F , 2°C
Dew Point: 27°F , -3°C
Humidity: 70%
Barometer: 30.26 inHg , 1024.7 hPa
Clouds: Clear
Visibility: 10 miles , 16 km
2015/04/02 06:51 KILG 020651Z 26003KT 10SM CLR 02/M03 A3026 RMK AO2 SLP245 T00171033